Time;durP1;ratioP1;P1;durP2;ratioP2;P2;SDS_P1;SDS_P2;PMS_P1;PMS_P2;Temp;Humidity;BMP_temperature;BMP_pressure;BME280_temperature;BME280_humidity;BME280_pressure;Samples;Min_cycle;Max_cycle;Signal;HPM_P1;HPM_P2
2021/01/21 00:00:00;;;;;;;1.38;0.90;;;10.90;99.90;;;15.08;61.03;98763.39;1698632;75;24477;-79
2021/01/21 00:02:16;;;;;;;3.08;1.00;;;11.00;99.90;;;15.12;60.70;98753.64;1657555;75;24459;-79
2021/01/21 00:04:32;;;;;;;2.32;1.24;;;11.00;99.90;;;15.26;60.37;98737.33;1693228;75;24888;-76
2021/01/21 00:06:48;;;;;;;1.74;1.16;;;11.10;99.90;;;15.53;59.37;98734.88;1683681;75;24497;-79
2021/01/21 00:09:05;;;;;;;1.92;1.17;;;11.10;99.90;;;15.36;59.86;98722.92;1691964;75;24504;-78
2021/01/21 00:11:21;;;;;;;4.53;1.34;;;11.00;99.90;;;15.32;59.96;98709.56;1696391;75;25080;-76
2021/01/21 00:13:39;;;;;;;2.38;1.05;;;11.10;99.90;;;15.38;59.51;98713.22;1699211;75;24453;-79
2021/01/21 00:15:55;;;;;;;2.00;1.19;;;11.10;99.90;;;15.46;59.47;98703.30;1693530;75;24934;-79
2021/01/21 00:18:13;;;;;;;1.50;0.99;;;11.10;99.90;;;15.16;60.19;98694.91;1691749;75;24446;-78
2021/01/21 00:20:30;;;;;;;4.53;1.39;;;11.10;99.90;;;15.32;59.66;98689.41;1693919;75;24439;-80
2021/01/21 00:22:47;;;;;;;1.99;1.18;;;11.10;99.90;;;15.16;60.36;98674.80;1693396;75;24520;-79
2021/01/21 00:25:06;;;;;;;1.41;0.86;;;11.10;99.90;;;15.04;60.57;98670.53;1698136;75;24501;-78
2021/01/21 00:27:22;;;;;;;1.43;1.08;;;11.00;99.90;;;15.27;59.86;98667.77;1697440;75;24958;-78
2021/01/21 00:29:38;;;;;;;2.42;1.28;;;11.10;99.90;;;15.01;60.85;98654.94;1695721;75;24452;-76
2021/01/21 00:31:55;;;;;;;2.75;1.30;;;11.10;99.90;;;15.30;59.64;98647.97;1701497;75;24476;-78
2021/01/21 00:34:13;;;;;;;1.33;0.91;;;11.10;99.90;;;15.15;60.05;98647.33;1701039;74;24543;-79
2021/01/21 00:36:29;;;;;;;2.81;1.49;;;11.10;99.90;;;15.25;59.87;98634.68;1702548;75;24522;-77
2021/01/21 00:38:45;;;;;;;1.47;1.08;;;11.00;99.90;;;15.02;60.63;98615.55;1700861;75;24567;-80
2021/01/21 00:41:02;;;;;;;2.80;1.34;;;11.10;99.90;;;15.25;60.21;98609.33;1696069;75;24433;-77
2021/01/21 00:43:18;;;;;;;2.61;1.20;;;11.10;99.90;;;15.22;59.94;98619.95;1701180;75;24629;-78
2021/01/21 00:45:35;;;;;;;2.60;1.18;;;11.10;99.90;;;15.19;59.85;98593.83;1694522;75;24547;-79
2021/01/21 00:47:53;;;;;;;2.05;1.13;;;11.10;99.90;;;15.29;59.80;98597.77;1680865;75;24529;-79
2021/01/21 00:50:12;;;;;;;1.70;1.00;;;11.10;99.90;;;15.46;59.38;98597.06;1692931;75;24866;-79
2021/01/21 00:52:28;;;;;;;1.31;1.13;;;11.10;99.90;;;15.20;59.78;98586.38;1699972;75;24480;-79
2021/01/21 00:54:45;;;;;;;1.80;1.30;;;11.10;99.90;;;15.13;60.21;98564.83;1694174;75;25046;-75
2021/01/21 00:57:03;;;;;;;1.86;0.95;;;11.10;99.90;;;15.20;60.15;98575.89;1681036;75;24661;-77
2021/01/21 00:59:19;;;;;;;2.16;1.07;;;11.20;99.90;;;15.37;59.49;98558.94;1697700;75;24481;-78
2021/01/21 01:01:37;;;;;;;1.16;1.07;;;11.20;99.90;;;15.24;59.66;98563.51;1697136;75;24572;-76
2021/01/21 01:03:54;;;;;;;2.14;1.22;;;11.20;99.90;;;15.32;59.56;98562.23;1690874;75;24465;-77
2021/01/21 01:06:12;;;;;;;2.32;1.12;;;11.20;99.90;;;15.28;59.42;98554.57;1687223;75;24963;-79
2021/01/21 01:08:32;;;;;;;2.84;1.22;;;11.20;99.90;;;15.36;59.31;98537.58;1691201;75;24451;-80
2021/01/21 01:10:50;;;;;;;2.45;1.18;;;11.20;99.90;;;15.25;59.42;98529.35;1692098;75;24432;-78
2021/01/21 01:13:09;;;;;;;2.82;1.17;;;11.20;99.90;;;15.50;58.58;98519.92;1697375;75;24481;-79
2021/01/21 01:15:31;;;;;;;1.52;1.09;;;11.20;99.90;;;15.35;58.62;98503.56;1695509;75;25073;-79
2021/01/21 01:17:48;;;;;;;1.69;1.19;;;11.20;99.90;;;15.27;59.09;98495.19;1691655;75;24892;-77
2021/01/21 01:20:07;;;;;;;2.47;1.14;;;11.20;99.90;;;15.35;58.58;98492.59;1694924;75;24934;-76
2021/01/21 01:22:23;;;;;;;2.21;1.35;;;11.20;99.90;;;15.22;58.98;98480.98;1695933;75;24583;-79
2021/01/21 01:24:39;;;;;;;2.04;0.98;;;11.20;99.90;;;15.41;58.12;98468.77;1689988;75;24988;-79
2021/01/21 01:26:55;;;;;;;1.97;1.11;;;11.20;99.90;;;15.26;58.51;98474.67;1690398;75;24511;-76
2021/01/21 01:29:12;;;;;;;1.60;1.10;;;11.20;99.90;;;15.31;58.38;98459.58;1695113;75;24587;-78
2021/01/21 01:31:29;;;;;;;1.27;1.05;;;11.20;99.90;;;15.29;58.07;98465.34;1686805;75;24919;-80
2021/01/21 01:33:46;;;;;;;1.58;0.90;;;11.30;99.90;;;15.38;57.65;98471.50;1696839;75;24500;-79
2021/01/21 01:36:03;;;;;;;2.02;1.19;;;11.30;99.90;;;15.49;57.16;98461.36;1694474;75;24571;-77
2021/01/21 01:38:20;;;;;;;3.08;1.11;;;11.30;99.90;;;15.65;56.62;98450.53;1689731;75;24476;-78
2021/01/21 01:40:36;;;;;;;2.93;1.31;;;11.30;99.90;;;15.33;57.48;98456.44;1700834;75;24509;-79
2021/01/21 01:42:56;;;;;;;1.95;1.04;;;11.30;99.90;;;15.33;57.37;98444.63;1692030;75;24499;-77
2021/01/21 01:45:16;;;;;;;2.10;1.18;;;11.40;99.90;;;15.70;56.20;98440.66;1697119;75;24516;-79
2021/01/21 01:47:34;;;;;;;1.93;0.97;;;11.40;99.90;;;15.74;56.01;98442.69;1712431;75;24570;-77
2021/01/21 01:49:51;;;;;;;2.32;1.33;;;11.50;99.90;;;15.65;56.18;98453.16;1703493;75;24490;-79
2021/01/21 01:52:08;;;;;;;2.73;1.12;;;11.50;99.90;;;15.92;55.33;98436.52;1714268;75;24882;-78
2021/01/21 01:54:24;;;;;;;2.08;1.09;;;11.50;99.90;;;15.90;55.20;98423.48;1693057;75;24500;-78
2021/01/21 01:56:42;;;;;;;1.17;1.07;;;11.60;99.90;;;15.79;55.42;98427.58;1713189;75;24441;-80
2021/01/21 01:59:00;;;;;;;2.27;1.28;;;11.70;99.90;;;15.83;55.16;98419.92;1700083;75;24465;-78
2021/01/21 02:01:21;;;;;;;2.28;1.07;;;11.70;99.90;;;15.85;54.89;98415.01;1701196;74;24438;-78
2021/01/21 02:03:37;;;;;;;2.58;1.26;;;11.80;99.90;;;15.93;54.54;98412.00;1706631;75;24481;-78
2021/01/21 02:05:57;;;;;;;1.80;0.97;;;11.80;99.90;;;16.00;54.28;98398.48;1699123;75;24513;-80
2021/01/21 02:08:15;;;;;;;0.97;0.87;;;11.90;99.90;;;16.06;54.05;98401.28;1710788;75;24543;-78
2021/01/21 02:10:34;;;;;;;2.31;1.08;;;11.90;99.90;;;16.10;53.82;98389.23;1714212;74;24493;-76
2021/01/21 02:13:30;;;;;;;2.10;1.18;;;11.90;99.90;;;15.99;53.94;98387.61;1705424;74;24375;-79
2021/01/21 02:16:06;;;;;;;1.76;1.09;;;11.90;99.90;;;16.20;53.54;98393.06;1693428;75;24701;-76
2021/01/21 02:18:30;;;;;;;2.43;1.38;;;11.80;99.90;;;16.02;53.66;98371.70;1708100;74;24544;-75
2021/01/21 02:21:43;;;;;;;2.56;1.27;;;11.30;99.90;;;15.34;56.72;98379.91;1702692;74;24454;-79
2021/01/21 02:24:34;;;;;;;1.70;1.22;;;10.80;99.90;;;15.18;58.72;98359.67;1688937;75;24472;-79
2021/01/21 02:26:55;;;;;;;2.66;1.39;;;10.30;99.90;;;15.14;59.37;98367.77;1698565;74;24605;-79
2021/01/21 02:29:17;;;;;;;1.76;1.19;;;10.20;99.90;;;15.18;59.99;98349.64;1703339;75;24462;-79
2021/01/21 02:32:20;;;;;;;1.44;1.12;;;10.30;99.90;;;15.36;59.37;98354.02;1709531;75;24521;-80
2021/01/21 02:34:48;;;;;;;2.14;1.19;;;10.50;99.90;;;15.53;58.67;98357.15;1701996;75;24504;-78
2021/01/21 02:37:11;;;;;;;1.46;1.10;;;10.80;99.90;;;15.87;57.46;98349.31;1703237;75;24434;-78
2021/01/21 02:39:40;;;;;;;1.74;1.32;;;10.90;99.90;;;15.78;57.75;98336.19;1692456;75;24406;-79
2021/01/21 02:41:57;;;;;;;2.10;1.07;;;11.00;99.90;;;15.94;57.44;98326.61;1705420;75;24585;-79
2021/01/21 02:44:14;;;;;;;2.89;1.23;;;11.10;99.90;;;15.89;57.32;98334.31;1698841;75;24504;-81
2021/01/21 02:46:31;;;;;;;1.86;1.03;;;11.20;99.90;;;16.03;56.66;98325.27;1709436;75;24521;-77
2021/01/21 02:48:47;;;;;;;1.85;1.04;;;11.10;99.90;;;15.45;58.61;98337.86;1666599;75;24538;-80
2021/01/21 02:51:10;;;;;;;1.76;1.35;;;10.80;99.90;;;15.38;59.43;98329.03;1700403;75;24509;-79
2021/01/21 02:53:31;;;;;;;2.04;1.04;;;10.70;99.90;;;15.70;58.67;98321.73;1696089;75;24512;-77
2021/01/21 02:55:53;;;;;;;2.63;1.15;;;10.50;99.90;;;15.51;59.30;98320.50;1682225;75;24539;-81
2021/01/21 02:58:18;;;;;;;1.09;0.86;;;10.50;99.90;;;15.79;58.46;98332.63;1696761;75;25092;-79
2021/01/21 03:00:37;;;;;;;1.33;0.98;;;10.40;99.90;;;15.55;60.00;98321.20;1685338;75;24540;-78
2021/01/21 03:02:58;;;;;;;2.31;1.44;;;10.30;99.90;;;15.75;59.50;98314.48;1697347;75;24615;-78
2021/01/21 03:05:18;;;;;;;2.56;1.32;;;10.40;99.90;;;15.85;59.42;98303.47;1699329;75;24481;-79
2021/01/21 03:07:37;;;;;;;1.28;1.04;;;10.60;99.90;;;15.90;59.23;98288.80;1695116;75;25065;-78
2021/01/21 03:09:53;;;;;;;1.90;1.12;;;10.80;99.90;;;15.90;59.25;98307.17;1703031;75;25232;-79
2021/01/21 03:12:25;;;;;;;2.10;1.18;;;11.00;99.90;;;16.14;58.30;98299.31;1695383;75;24472;-78
2021/01/21 03:14:47;;;;;;;1.60;1.24;;;11.20;99.90;;;16.23;57.55;98295.73;1680902;75;24447;-79
2021/01/21 03:17:04;;;;;;;0.97;0.93;;;11.50;99.90;;;16.45;56.88;98291.07;1700421;75;25018;-79
2021/01/21 03:19:22;;;;;;;1.26;1.02;;;11.60;99.90;;;16.65;55.95;98293.95;1697086;75;24975;-79
2021/01/21 03:21:39;;;;;;;3.52;1.54;;;11.60;99.90;;;16.29;56.91;98300.69;1691127;75;25243;-76
2021/01/21 03:23:58;;;;;;;1.62;0.99;;;11.50;99.90;;;16.60;55.78;98275.81;1701779;75;24540;-80
2021/01/21 03:26:18;;;;;;;1.78;0.90;;;11.30;99.90;;;16.17;58.21;98273.75;1699733;75;24426;-80
2021/01/21 03:28:36;;;;;;;1.79;1.15;;;11.10;99.90;;;16.28;57.67;98267.95;1700275;75;24392;-83
2021/01/21 03:30:55;;;;;;;1.97;1.02;;;11.10;99.90;;;16.03;58.70;98264.44;1690386;75;24892;-78
2021/01/21 03:33:22;;;;;;;1.43;1.01;;;11.30;99.90;;;16.65;57.01;98263.73;1695961;75;24609;-76
2021/01/21 03:35:40;;;;;;;3.35;1.20;;;11.50;99.90;;;16.74;56.60;98252.70;1694248;75;24434;-79
2021/01/21 03:37:58;;;;;;;1.48;0.90;;;11.80;99.90;;;16.93;55.71;98253.37;1691542;75;24504;-79
2021/01/21 03:40:20;;;;;;;1.07;0.98;;;12.00;99.90;;;16.80;55.97;98254.16;1693282;75;24468;-79
2021/01/21 03:42:37;;;;;;;2.18;1.01;;;12.20;99.90;;;16.91;55.53;98272.80;1696056;75;25008;-79
2021/01/21 03:45:11;;;;;;;1.41;1.03;;;12.30;99.90;;;16.92;55.20;98260.03;1684946;75;24434;-75
2021/01/21 03:47:27;;;;;;;1.06;0.93;;;12.50;99.90;;;16.96;54.71;98268.14;1694130;75;24457;-79
2021/01/21 03:49:48;;;;;;;1.12;1.02;;;12.60;99.90;;;16.92;54.83;98237.69;1704814;74;24395;-78
2021/01/21 03:52:06;;;;;;;0.95;0.85;;;12.60;99.90;;;16.86;55.51;98224.89;1705300;75;25218;-77
2021/01/21 03:54:27;;;;;;;2.20;1.25;;;12.60;99.90;;;17.03;55.68;98253.24;1706682;75;25143;-80
2021/01/21 03:56:46;;;;;;;1.00;0.92;;;12.60;99.90;;;16.88;56.29;98241.44;1706193;75;24547;-78
2021/01/21 03:59:06;;;;;;;1.37;1.07;;;12.60;99.90;;;16.78;56.71;98234.53;1690597;75;24453;-79
2021/01/21 04:01:24;;;;;;;1.24;0.77;;;12.60;99.90;;;16.82;56.79;98253.61;1708541;74;25277;-78
2021/01/21 04:03:41;;;;;;;1.38;1.06;;;12.60;99.90;;;16.78;57.00;98325.66;1694541;75;24469;-80
2021/01/21 04:06:01;;;;;;;2.27;1.21;;;12.30;99.90;;;15.85;61.21;98274.60;1704483;75;24812;-80
2021/01/21 04:08:17;;;;;;;1.42;1.00;;;11.80;99.90;;;15.07;68.49;98313.91;1704403;75;24483;-80
2021/01/21 04:10:35;;;;;;;1.40;0.93;;;11.40;99.90;;;14.90;74.76;98264.95;1702443;75;24414;-79
2021/01/21 04:12:52;;;;;;;1.54;0.97;;;11.00;99.90;;;14.93;79.08;98300.17;1709034;75;24370;-76
2021/01/21 04:15:11;;;;;;;1.09;0.78;;;10.70;99.90;;;14.84;78.68;98291.41;1702469;75;24628;-80
2021/01/21 04:17:30;;;;;;;2.09;1.11;;;10.50;99.90;;;15.02;79.57;98288.38;1714077;75;24500;-75
2021/01/21 04:19:46;;;;;;;1.20;0.89;;;10.40;99.90;;;15.03;79.94;98290.92;1706785;75;24610;-78
2021/01/21 04:22:02;;;;;;;1.85;1.10;;;10.40;99.90;;;15.25;80.04;98273.72;1693959;75;24508;-79
2021/01/21 04:24:20;;;;;;;2.20;1.23;;;10.40;99.90;;;15.12;82.00;98290.96;1655682;75;24528;-77
2021/01/21 04:43:02;;;;;;;4.27;1.40;;;;;;;;;;1709076;74;24391;-76
2021/01/21 04:45:19;;;;;;;1.39;0.63;;;7.00;99.90;;;;;;1695834;75;25527;-76
2021/01/21 04:47:54;;;;;;;4.26;0.90;;;7.10;99.90;;;-142.09;100.00;110724.84;1707406;74;24397;-76
2021/01/21 12:58:09;;;;;;;4.93;1.26;;;;;;;;;;1743574;72;32560;-77
2021/01/21 13:00:24;;;;;;;5.20;1.59;;;;;;;;;;1715461;73;24463;-80
2021/01/21 13:02:40;;;;;;;2.68;1.20;;;;;;;;;;1713163;74;25033;-75
2021/01/21 13:04:58;;;;;;;4.16;1.47;;;;;;;;;;1716361;73;24570;-76
2021/01/21 13:07:19;;;;;;;3.13;1.45;;;;;;;;;;1724407;73;24913;-74
2021/01/21 13:09:34;;;;;;;4.26;0.96;;;;;;;;;;1715560;73;24514;-77
2021/01/21 13:11:51;;;;;;;2.56;0.91;;;;;;;;;;1726158;73;24995;-76
2021/01/21 13:14:04;;;;;;;4.67;1.46;;;;;;;;;;1717871;73;25039;-77
2021/01/21 13:16:18;;;;;;;2.58;1.40;;;;;;;;;;1720594;73;24441;-79
2021/01/21 13:18:34;;;;;;;4.01;1.53;;;;;;;;;;1732095;73;24497;-77
2021/01/21 13:20:49;;;;;;;3.38;1.62;;;;;;;;;;1721592;73;24452;-78
2021/01/21 13:23:13;;;;;;;5.55;1.83;;;;;;;;;;1723421;73;24452;-78
2021/01/21 13:25:27;;;;;;;4.01;1.72;;;;;;;;;;1715524;73;24908;-78
2021/01/21 13:27:41;;;;;;;4.99;1.51;;;;;;;;;;1715421;73;24473;-78
2021/01/21 13:29:57;;;;;;;3.59;1.28;;;;;;;;;;1717739;73;24536;-79
2021/01/21 13:32:13;;;;;;;4.00;1.52;;;;;;;;;;1720497;73;25100;-79
2021/01/21 13:34:30;;;;;;;3.91;1.37;;;;;;;;;;1719754;73;24960;-79
2021/01/21 13:36:46;;;;;;;2.11;1.15;;;;;;;;;;1726124;73;24502;-77
2021/01/21 13:39:03;;;;;;;4.97;1.37;;;;;;;;;;1719906;73;24496;-79
2021/01/21 13:41:20;;;;;;;3.55;1.49;;;;;;;;;;1721759;73;24508;-81
2021/01/21 13:43:40;;;;;;;2.68;1.02;;;;;;;;;;1709912;73;24445;-79
2021/01/21 13:45:55;;;;;;;2.83;1.49;;;;;;;;;;1720899;73;24992;-78
2021/01/21 13:48:10;;;;;;;4.12;1.39;;;;;;;;;;1718449;73;24471;-79
2021/01/21 13:50:24;;;;;;;3.02;1.28;;;;;;;;;;1700817;73;24533;-79
2021/01/21 13:52:40;;;;;;;2.67;1.37;;;;;;;;;;1718074;73;25402;-79
2021/01/21 13:54:56;;;;;;;3.35;1.34;;;;;;;;;;1718584;73;25050;-77
2021/01/21 13:57:13;;;;;;;5.55;1.46;;;;;;;;;;1725965;73;24443;-81
2021/01/21 13:59:29;;;;;;;1.26;0.88;;;;;;;;;;1727134;73;24477;-79
2021/01/21 14:01:43;;;;;;;3.32;1.35;;;;;;;;;;1723794;73;24540;-75
2021/01/21 14:03:58;;;;;;;4.69;1.62;;;;;;;;;;1728108;73;24495;-77
2021/01/21 14:06:12;;;;;;;3.04;1.11;;;;;;;;;;1723086;73;24520;-79
2021/01/21 14:08:26;;;;;;;4.06;1.37;;;;;;;;;;1730695;73;24417;-79
2021/01/21 14:10:45;;;;;;;7.95;1.55;;;;;;;;;;1725656;73;24405;-79
2021/01/21 14:12:59;;;;;;;4.70;1.21;;;;;;;;;;1728028;73;24516;-80
2021/01/21 14:15:15;;;;;;;2.83;1.20;;;;;;;;;;1721145;73;24977;-79
2021/01/21 14:17:33;;;;;;;3.62;1.58;;;;;;;;;;1724890;73;25114;-79
2021/01/21 14:19:46;;;;;;;3.22;1.32;;;;;;;;;;1728298;73;24444;-79
2021/01/21 14:22:03;;;;;;;5.64;1.74;;;;;;;;;;1729093;73;24969;-82
2021/01/21 14:24:16;;;;;;;5.36;1.80;;;;;;;;;;1735911;73;24835;-79
2021/01/21 14:26:30;;;;;;;3.82;1.66;;;;;;;;;;1729827;73;24484;-78
2021/01/21 14:28:45;;;;;;;2.90;0.99;;;;;;;;;;1724158;73;24958;-81
2021/01/21 14:31:02;;;;;;;3.72;1.20;;;;;;;;;;1724389;73;24508;-81
2021/01/21 14:33:15;;;;;;;3.36;1.26;;;;;;;;;;1725006;73;24564;-77
2021/01/21 14:35:29;;;;;;;5.04;1.27;;;;;;;;;;1728143;73;24408;-79
2021/01/21 14:37:43;;;;;;;4.50;1.41;;;;;;;;;;1722665;73;24442;-77
2021/01/21 14:39:58;;;;;;;3.24;1.26;;;;;;;;;;1724814;73;24913;-79
2021/01/21 14:42:13;;;;;;;2.28;0.84;;;;;;;;;;1702440;74;24727;-81
2021/01/21 14:44:26;;;;;;;2.18;0.90;;;;;;;;;;1721992;73;24932;-79
2021/01/21 14:46:40;;;;;;;3.81;1.38;;;;;;;;;;1728555;73;24493;-80
2021/01/21 14:48:57;;;;;;;3.71;1.10;;;;;;;;;;1723140;73;24531;-79
2021/01/21 14:51:14;;;;;;;1.72;0.89;;;;;;;;;;1723568;73;24447;-79
2021/01/21 14:53:31;;;;;;;2.54;1.22;;;;;;;;;;1721800;73;24475;-80
2021/01/21 14:55:48;;;;;;;2.97;1.18;;;;;;;;;;1733009;73;24616;-79
2021/01/21 14:58:03;;;;;;;3.62;1.30;;;;;;;;;;1720800;73;25024;-76
2021/01/21 15:00:18;;;;;;;1.83;0.99;;;;;;;;;;1702299;73;24524;-76
2021/01/21 15:02:31;;;;;;;3.36;1.14;;;;;;;;;;1705544;73;24502;-77
2021/01/21 15:04:46;;;;;;;3.36;1.40;;;;;;;;;;1710115;73;25100;-75
2021/01/21 15:07:00;;;;;;;3.58;1.30;;;;;;;;;;1705016;74;24667;-78
2021/01/21 15:09:14;;;;;;;2.14;1.17;;;;;;;;;;1706799;73;24500;-79
2021/01/21 15:11:29;;;;;;;4.44;1.13;;;;;;;;;;1710363;73;24501;-78
2021/01/21 15:13:42;;;;;;;3.38;1.33;;;;;;;;;;1711016;74;24519;-80
2021/01/21 15:15:59;;;;;;;3.57;1.17;;;;;;;;;;1704191;73;24828;-79
2021/01/21 15:18:17;;;;;;;3.90;1.48;;;;;;;;;;1703525;73;24848;-79
2021/01/21 15:20:33;;;;;;;3.61;1.25;;;;;;;;;;1703856;73;25084;-79
2021/01/21 15:22:49;;;;;;;3.57;1.37;;;;;;;;;;1706978;73;24469;-79
2021/01/21 15:25:05;;;;;;;4.90;1.45;;;;;;;;;;1708166;73;24985;-78
2021/01/21 15:27:21;;;;;;;5.50;1.81;;;;;;;;;;1704492;74;25078;-81
2021/01/21 15:29:37;;;;;;;3.90;0.98;;;;;;;;;;1705427;73;24445;-83
2021/01/21 15:31:51;;;;;;;3.02;1.26;;;;;;;;;;1712039;74;24512;-83
2021/01/21 15:34:07;;;;;;;2.43;1.14;;;;;;;;;;1700896;74;24430;-78
2021/01/21 15:36:22;;;;;;;5.08;1.62;;;;;;;;;;1699348;74;25435;-76
2021/01/21 15:38:36;;;;;;;6.53;1.51;;;;;;;;;;1698966;74;24610;-73
2021/01/21 15:40:51;;;;;;;2.60;0.96;;;;;;;;;;1702672;73;24966;-78
2021/01/21 15:43:09;;;;;;;4.08;1.23;;;;;;;;;;1703545;73;24662;-77
2021/01/21 15:45:28;;;;;;;2.67;0.90;;;;;;;;;;1702704;74;24509;-77
2021/01/21 15:47:46;;;;;;;3.50;1.14;;;;;;;;;;1708814;74;24492;-77
2021/01/21 15:50:00;;;;;;;3.01;1.21;;;;;;;;;;1702942;74;24999;-76
2021/01/21 15:52:17;;;;;;;3.18;1.34;;;;;;;;;;1701588;74;24716;-79
2021/01/21 15:54:34;;;;;;;1.97;0.87;;;;;;;;;;1706968;74;24580;-77
2021/01/21 15:56:56;;;;;;;3.65;0.92;;;;;;;;;;1709440;74;25116;-75
2021/01/21 15:59:12;;;;;;;2.02;0.85;;;;;;;;;;1719524;73;24507;-78
2021/01/21 16:01:27;;;;;;;4.82;1.02;;;;;;;;;;1723117;73;24417;-81
2021/01/21 16:03:46;;;;;;;3.99;1.50;;;;;;;;;;1727491;73;25922;-78
2021/01/21 16:06:03;;;;;;;2.83;1.42;;;;;;;;;;1723889;73;25043;-79
2021/01/21 16:08:18;;;;;;;3.59;1.06;;;;;;;;;;1720870;73;24694;-77
2021/01/21 16:10:34;;;;;;;3.56;1.35;;;;;;;;;;1695850;74;24646;-77
2021/01/21 16:12:48;;;;;;;2.97;1.34;;;;;;;;;;1723914;73;24479;-79
2021/01/21 16:15:41;;;;;;;3.73;1.27;;;;;;;;;;1723267;73;24483;-77
2021/01/21 16:17:56;;;;;;;4.88;1.45;;;;;;;;;;1724821;73;24559;-75
2021/01/21 16:20:11;;;;;;;3.33;1.25;;;;;;;;;;1728253;73;24494;-79
2021/01/21 16:22:25;;;;;;;5.24;1.43;;;;;;;;;;1728022;73;24563;-79
2021/01/21 16:24:39;;;;;;;4.26;1.48;;;;;;;;;;1727058;73;24508;-77
2021/01/21 16:26:55;;;;;;;5.58;1.30;;;;;;;;;;1728431;73;24372;-78
2021/01/21 16:29:10;;;;;;;3.09;1.54;;;;;;;;;;1724606;73;24495;-79
2021/01/21 16:31:26;;;;;;;3.52;1.31;;;;;;;;;;1724119;73;24436;-77
2021/01/21 16:33:39;;;;;;;3.32;1.31;;;;;;;;;;1724551;73;24493;-76
2021/01/21 16:35:54;;;;;;;4.20;1.41;;;;;;;;;;1723264;73;24525;-76
2021/01/21 16:38:08;;;;;;;2.97;0.88;;;;;;;;;;1724568;73;24932;-75
2021/01/21 16:40:25;;;;;;;7.56;1.48;;;;;;;;;;1724639;73;24484;-77
2021/01/21 16:42:40;;;;;;;5.06;1.49;;;;;;;;;;1723324;73;25531;-76
2021/01/21 16:44:55;;;;;;;2.04;0.90;;;;;;;;;;1723348;73;24461;-78
2021/01/21 16:47:10;;;;;;;5.30;1.21;;;;;;;;;;1727180;73;24474;-75
2021/01/21 16:49:24;;;;;;;4.23;1.63;;;;;;;;;;1732500;73;25033;-76
2021/01/21 16:51:38;;;;;;;3.74;1.18;;;;;;;;;;1726425;73;25094;-77
2021/01/21 16:53:53;;;;;;;5.46;1.41;;;;;;;;;;1720992;73;25116;-74
2021/01/21 16:56:07;;;;;;;1.75;0.86;;;;;;;;;;1729874;73;25405;-79
2021/01/21 16:58:20;;;;;;;5.61;1.18;;;;;;;;;;1722397;73;24415;-77
2021/01/21 17:00:36;;;;;;;7.58;1.64;;;;;;;;;;1698815;73;24988;-75
2021/01/21 17:02:49;;;;;;;7.64;1.50;;;;;;;;;;1699688;73;24391;-77
2021/01/21 17:05:05;;;;;;;3.93;1.15;;;;;;;;;;1701694;73;24494;-76
2021/01/21 17:07:19;;;;;;;5.97;1.30;;;;;;;;;;1690962;73;24472;-76
2021/01/21 17:09:32;;;;;;;4.06;1.36;;;;;;;;;;1692708;73;25050;-75
2021/01/21 17:11:48;;;;;;;2.16;1.12;;;;;;;;;;1704915;73;24441;-76
2021/01/21 17:14:03;;;;;;;2.88;1.09;;;;;;;;;;1699373;73;24460;-76
2021/01/21 17:16:17;;;;;;;3.55;1.45;;;;;;;;;;1686683;75;24600;-79
2021/01/21 17:18:31;;;;;;;3.75;1.30;;;;;;;;;;1697371;75;24777;-77
2021/01/21 17:20:46;;;;;;;6.72;1.87;;;;;;;;;;1692372;74;24940;-75
2021/01/21 17:22:59;;;;;;;4.11;1.53;;;;;;;;;;1697198;75;24615;-75
2021/01/21 17:25:16;;;;;;;3.35;1.29;;;;;;;;;;1707483;73;24588;-75
2021/01/21 17:27:30;;;;;;;6.47;1.81;;;;;;;;;;1696482;73;24512;-76
2021/01/21 17:29:46;;;;;;;2.55;0.94;;;;;;;;;;1690567;73;24904;-76
2021/01/21 17:32:02;;;;;;;2.77;1.29;;;;;;;;;;1688193;74;24447;-81
2021/01/21 17:34:20;;;;;;;3.49;1.13;;;;;;;;;;1692283;75;24488;-77
2021/01/21 17:36:33;;;;;;;8.51;2.13;;;;;;;;;;1692934;73;24439;-79
2021/01/21 17:38:47;;;;;;;3.37;1.26;;;;;;;;;;1692595;73;24518;-79
2021/01/21 17:41:03;;;;;;;4.04;1.30;;;;;;;;;;1699443;73;24625;-79
2021/01/21 17:43:16;;;;;;;5.42;1.68;;;;;;;;;;1702489;73;24453;-77
2021/01/21 17:45:32;;;;;;;4.22;1.41;;;;;;;;;;1697825;75;24934;-76
2021/01/21 17:47:47;;;;;;;8.84;1.72;;;;;;;;;;1689689;75;24456;-76
2021/01/21 17:50:07;;;;;;;4.27;1.38;;;;;;;;;;1692718;75;24530;-78
2021/01/21 17:52:22;;;;;;;6.26;1.71;;;;;;;;;;1696222;75;24976;-80
2021/01/21 17:54:36;;;;;;;4.00;1.87;;;;;;;;;;1687780;75;24446;-76
2021/01/21 17:56:52;;;;;;;5.50;1.58;;;;;;;;;;1699566;75;24956;-77
2021/01/21 17:59:06;;;;;;;6.07;1.62;;;;;;;;;;1695340;75;24526;-76
2021/01/21 18:01:19;;;;;;;4.20;1.37;;;;;;;;;;1707397;74;24432;-75
2021/01/21 18:03:33;;;;;;;4.20;1.23;;;;;;;;;;1705371;74;24457;-77
2021/01/21 18:05:52;;;;;;;6.70;1.40;;;;;;;;;;1706147;74;24424;-77
2021/01/21 18:08:08;;;;;;;5.31;1.40;;;;;;;;;;1706331;74;24507;-78
2021/01/21 18:10:22;;;;;;;3.20;1.20;;;;;;;;;;1708843;74;24642;-77
2021/01/21 18:12:40;;;;;;;5.52;1.62;;;;;;;;;;1704897;74;24399;-76
2021/01/21 18:14:54;;;;;;;4.37;1.36;;;;;;;;;;1705915;74;24592;-77
2021/01/21 18:17:08;;;;;;;3.30;1.24;;;;;;;;;;1703857;74;24495;-77
2021/01/21 18:19:22;;;;;;;3.89;1.43;;;;;;;;;;1707009;74;24476;-78
2021/01/21 18:21:39;;;;;;;4.50;1.53;;;;;;;;;;1710761;74;24437;-76
2021/01/21 18:23:55;;;;;;;2.87;1.60;;;;;;;;;;1705421;74;24580;-77
2021/01/21 18:26:09;;;;;;;5.37;2.22;;;;;;;;;;1706950;74;24525;-77
2021/01/21 18:28:28;;;;;;;5.03;1.49;;;;;;;;;;1703968;74;24563;-77
2021/01/21 18:30:42;;;;;;;3.06;1.24;;;;;;;;;;1708154;74;24525;-73
2021/01/21 18:32:58;;;;;;;3.15;1.20;;;;;;;;;;1711839;74;24475;-75
2021/01/21 18:35:14;;;;;;;2.49;1.48;;;;;;;;;;1708366;74;24624;-78
2021/01/21 18:37:31;;;;;;;5.14;1.40;;;;;;;;;;1707042;74;25188;-74
2021/01/21 18:39:47;;;;;;;4.65;1.99;;;;;;;;;;1706078;74;24403;-75
2021/01/21 18:42:01;;;;;;;1.80;0.92;;;;;;;;;;1708922;74;24422;-76
2021/01/21 18:44:16;;;;;;;4.96;1.37;;;;;;;;;;1710133;74;24516;-76
2021/01/21 18:46:31;;;;;;;4.49;1.32;;;;;;;;;;1705685;74;24548;-76
2021/01/21 18:48:47;;;;;;;4.69;1.71;;;;;;;;;;1708597;74;24621;-75
2021/01/21 18:51:03;;;;;;;2.40;0.97;;;;;;;;;;1710761;74;24491;-75
2021/01/21 18:53:21;;;;;;;3.21;0.97;;;;;;;;;;1708510;74;25465;-74
2021/01/21 18:55:45;;;;;;;4.46;1.22;;;;;;;;;;1709263;74;24657;-77
2021/01/21 18:58:03;;;;;;;3.28;1.28;;;;;;;;;;1706413;74;24349;-75
2021/01/21 19:00:18;;;;;;;1.89;0.90;;;;;;;;;;1708401;74;24424;-76
2021/01/21 19:02:36;;;;;;;3.14;1.31;;;;;;;;;;1711305;74;24540;-75
2021/01/21 19:04:57;;;;;;;4.46;1.55;;;;;;;;;;1706331;74;25084;-77
2021/01/21 19:07:28;;;;;;;5.73;1.51;;;;;;;;;;1708241;74;24459;-77
2021/01/21 19:09:58;;;;;;;3.92;1.47;;;;;;;;;;1709018;74;24497;-78
2021/01/21 19:12:08;;;;;;;7.14;2.20;;;;;;;;;;1705006;74;24944;-78
2021/01/21 19:14:22;;;;;;;3.94;1.68;;;;;;;;;;1707589;74;24891;-73
2021/01/21 19:16:37;;;;;;;5.67;1.95;;;;;;;;;;1706290;74;24901;-75
2021/01/21 19:19:01;;;;;;;5.08;1.83;;;;;;;;;;1710501;74;24516;-75
2021/01/21 19:21:14;;;;;;;5.95;1.85;;;;;;;;;;1710625;74;24427;-74
2021/01/21 19:23:36;;;;;;;6.06;2.19;;;;;;;;;;1705860;74;24516;-75
2021/01/21 19:25:46;;;;;;;5.18;1.88;;;;;;;;;;1709207;74;24988;-75
2021/01/21 19:28:02;;;;;;;3.50;1.52;;;;;;;;;;1709455;74;24796;-74
2021/01/21 19:30:20;;;;;;;3.37;1.40;;;;;;;;;;1707236;74;24441;-74
2021/01/21 19:32:35;;;;;;;8.97;1.91;;;;;;;;;;1707174;74;24524;-77
2021/01/21 19:34:54;;;;;;;7.02;1.60;;;;;;;;;;1706710;74;24454;-75
2021/01/21 19:37:10;;;;;;;8.57;2.17;;;;;;;;;;1707279;74;24421;-75
2021/01/21 19:39:26;;;;;;;6.60;1.91;;;;;;;;;;1701698;74;24856;-77
2021/01/21 19:41:54;;;;;;;7.27;1.81;;;;;;;;;;1707621;74;25046;-76
2021/01/21 19:44:15;;;;;;;5.13;1.51;;;;;;;;;;1703720;74;24505;-76
2021/01/21 19:46:30;;;;;;;5.99;1.60;;;;;;;;;;1709213;74;24955;-77
2021/01/21 19:48:48;;;;;;;6.31;1.56;;;;;;;;;;1708849;74;24424;-79
2021/01/21 19:51:03;;;;;;;5.57;1.61;;;;;;;;;;1704928;74;24568;-80
2021/01/21 19:53:25;;;;;;;8.59;1.96;;;;;;;;;;1703377;74;24437;-80
2021/01/21 19:55:41;;;;;;;6.40;1.76;;;;;;;;;;1705910;74;24516;-78
2021/01/21 19:57:55;;;;;;;6.25;1.90;;;;;;;;;;1710988;74;24980;-80
2021/01/21 20:00:22;;;;;;;7.91;1.91;;;;;;;;;;1708390;74;24453;-79
2021/01/21 20:02:54;;;;;;;6.86;1.72;;;;;;;;;;1713688;74;24357;-80
2021/01/21 20:05:10;;;;;;;7.96;2.15;;;;;;;;;;1705152;74;24453;-79
2021/01/21 20:07:27;;;;;;;7.62;1.99;;;;;;;;;;1705625;74;24402;-80
2021/01/21 20:09:48;;;;;;;5.20;2.19;;;;;;;;;;1707267;74;24464;-78
2021/01/21 20:12:11;;;;;;;4.81;2.50;;;;;;;;;;1706231;74;25050;-80
2021/01/21 20:14:43;;;;;;;7.86;2.10;;;;;;;;;;1708513;74;24540;-80
2021/01/21 20:17:01;;;;;;;6.87;2.00;;;;;;;;;;1705204;74;24488;-80